茨城空港(百里飛行場)の過去48時間の天気

茨城空港(百里飛行場) (Hyakuri)

現在時刻: 10/26 18:54 JST (10/26 09:54 UTC) 以下の時間は現地時間です。

過去48時間のMETAR気象情報
時間 風向 風速(m/s) 視程 気温(℃) 湿度(%) 気圧(hPa) 天気現象
26 18:00 3 10km以上 15 77 1014
26 17:00 5 10km以上 16 72 1013
26 16:00 4 10km以上 17 72 1013
26 15:00 4 10km以上 17 83 1012
26 14:33 5 10km以上 17 77 1012 弱いしゅう雨
26 14:00 4 10km以上 17 77 1012
26 13:00 北東 9 10km以上 17 72 1011
26 12:00 北北東 6 10km以上 18 77 1011
26 11:18 6 10km以上 17 77 1012
26 11:00 北北東 8 10km以上 17 83 1012
26 10:21 5 10km以上 16 88 1012
26 10:00 5 10km以上 16 88 1012 弱いしゅう雨
26 09:33 5 10km以上 15 94 1012 弱いしゅう雨
26 09:00 5 10km以上 15 88 1012 弱いしゅう雨
26 08:00 5 10km以上 14 94 1013 弱いしゅう雨
26 07:00 5 8000m 14 94 1013 弱いしゅう雨
26 06:31 北北東 6 5000m 14 94 1013 弱いしゅう雨 もや
26 06:00 北東 5 5000m 14 94 1013 弱いしゅう雨 もや
26 05:50 北東 5 5000m 14 94 1013 弱いしゅう雨 もや
26 05:10 北東 6 4000m 14 94 1014 弱いしゅう雨 もや
26 05:00 東北東 7 5000m 14 94 1014 弱いしゅう雨 もや
26 04:36 東北東 6 3000m 15 88 1014 しゅう雨 もや
26 04:00 7 2000m 15 94 1014 しゅう雨 もや
26 03:42 6 2000m 15 94 1014 しゅう雨 もや
26 03:00 北北西 3 1500m 14 94 1015 強いしゅう雨 もや
26 02:25 3 1500m 14 94 1015 強いしゅう雨 もや
26 02:14 南南東 6 2000m 14 94 1015 しゅう雨 もや
26 02:00 5 1500m 13 94 1016 強いしゅう雨 もや
26 01:21 6 1500m 13 94 1016 強いしゅう雨 もや
26 01:00 5 2000m 13 94 1017 しゅう雨 もや
26 00:00 4 2000m 14 94 1018 しゅう雨 もや
25 23:34 4 2500m 14 94 1018 しゅう雨 もや
25 23:16 北北東 4 4000m 14 94 1018 弱いしゅう雨 もや
25 23:00 北北東 4 5000m 14 88 1018 弱いしゅう雨 もや
25 22:45 北北東 4 7000m 14 88 1018 弱いしゅう雨
25 22:00 北北東 3 8000m 14 88 1020 弱いしゅう雨
25 21:02 北北東 4 10km以上 14 82 1020 弱いしゅう雨
25 21:00 北北東 3 10km以上 14 82 1020
25 20:00 3 10km以上 14 82 1022
25 19:00 3 10km以上 14 82 1022
25 18:00 北北東 3 10km以上 14 88 1021
25 17:00 北北東 3 10km以上 14 82 1022
25 16:00 北北東 2 10km以上 16 72 1023
25 15:00 北北東 2 10km以上 17 63 1023
25 14:00 北東 4 10km以上 17 63 1023
25 13:00 東北東 4 10km以上 18 56 1023
25 12:00 東北東 4 10km以上 18 56 1024
25 11:36 北東 5 10km以上 19 52 1024
25 11:00 北北東 3 10km以上 20 43 1025
25 10:00 北北東 4 10km以上 18 45 1025
25 09:16 北北東 3 10km以上 17 52 1026
25 09:00 北北東 3 10km以上 15 63 1026
25 08:00 北北東 3 10km以上 12 71 1026
25 07:00 北北東 2 10km以上 9 87 1026
25 06:00 北北東 2 10km以上 5 93 1026
25 05:00 1 10km以上 5 100 1026
25 04:00 北北東 2 10km以上 5 93 1026
25 03:00 1 10km以上 6 93 1026
25 02:00 北北東 1 10km以上 6 93 1027
25 01:00 1 10km以上 6 93 1027
25 00:00 北西 1 10km以上 7 93 1027
24 23:00 北北東 2 10km以上 8 87 1027
24 22:00 不定 1 10km以上 8 87 1027
24 21:00 北西 1 10km以上 8 87 1026
24 20:00 西北西 1 10km以上 9 81 1026
24 19:00 南東 1 10km以上 11 67 1026
RJAH 260900Z 01006KT 9999 FEW020 SCT050 BKN070 15/11 Q1014
RJAH 260800Z 01009KT 9999 FEW020 SCT050 BKN070 16/11 Q1013
RJAH 260700Z 35008KT 320V020 9999 FEW015 SCT025 BKN050 17/12 Q1013
RJAH 260600Z 36007KT 9999 FEW015 SCT025 BKN050 17/14 Q1012
RJAH 260533Z 36009KT 9999 -SHRA FEW015 BKN025 BKN050 17/13 Q1012 RMK 1CU015 6CU025 7SC050 A2990
RJAH 260500Z 01008KT 9999 FEW015 BKN025 BKN050 17/13 Q1012
RJAH 260400Z 04017KT 9999 FEW015 BKN025 BKN060 17/12 Q1011
RJAH 260300Z 03011KT 9999 FEW012 BKN020 BKN060 18/14 Q1011
RJAH 260218Z 36012KT 9999 FEW010 BKN020 BKN060 17/13 Q1012 RMK 1CU010 6SC020 7SC060 A2988
RJAH 260200Z 02016KT 9999 FEW008 BKN015 BKN060 17/14 Q1012
RJAH 260121Z 36009KT 330V050 9999 FEW008 BKN015 BKN060 16/14 Q1012 RMK 1ST008 5SC015 7SC060 A2989
RJAH 260100Z 36009KT 9999 -SHRA FEW008 BKN015 BKN060 16/14 Q1012
RJAH 260033Z 35009KT 9999 -SHRA FEW008 BKN012 BKN060 15/14 Q1012 RMK 1ST008 5SC012 6SC060 A2990
RJAH 260000Z 35010KT 9999 -SHRA FEW006 SCT010 BKN060 15/13 Q1012
RJAH 252300Z 36009KT 9999 -SHRA FEW006 SCT010 BKN050 14/13 Q1013
RJAH 252200Z 01009KT 8000 -SHRA FEW005 BKN010 BKN070 14/13 Q1013
RJAH 252131Z 02011KT 5000 -SHRA BR FEW005 BKN012 BKN070 14/13 Q1013 RMK 1ST005 5CU012 7AC070 A2992
RJAH 252100Z 04010KT 5000 -SHRA BR FEW005 BKN015 BKN080 14/13 Q1013
RJAH 252050Z 04009KT 5000 -SHRA BR FEW005 BKN015 BKN080 14/13 Q1013 RMK 1ST005 5CU015 7AC080 A2993
RJAH 252010Z 05011KT 4000 -SHRA BR SCT008 BKN012 OVC070 14/13 Q1014 RMK 3ST008 7CU012 8AC070 A2996 VIS S-SW 3000M
RJAH 252000Z 06013G23KT 5000 -SHRA BR FEW005 SCT008 BKN012 14/13 Q1014
RJAH 251936Z 07012KT 3000 SHRA BR SCT005 BKN008 OVC012 15/13 Q1014 RMK 3ST005 7ST008 8CU012 A2995 VIS S-SW 5KM NW-N 2400M
RJAH 251900Z 08013G23KT 2000 SHRA BR FEW003 BKN005 OVC008 15/14 Q1014
RJAH 251842Z 09012KT 2000 SHRA BR FEW003 BKN005 OVC008 15/14 Q1014 RMK 2ST003 7ST005 8ST008 A2996 MAX WIND 20KT
RJAH 251800Z 33005KT 270V010 1500 R03/P1800N +SHRA BR FEW003 BKN005 OVC008 14/13 Q1015
RJAH 251725Z VRB05KT 1500 R03/P1800N +SHRA BR FEW003 BKN005 OVC008 14/13 Q1015 RMK 2ST003 7ST005 8ST008 A2999 VIS S-SW 1200M
RJAH 251714Z 15011KT 120V180 2000 SHRA BR FEW003 BKN005 OVC008 14/13 Q1015 RMK 2ST003 7ST005 8ST008 A3000 VIS S 1500M
RJAH 251700Z 01010KT 1500 R03/P1800N +SHRA BR FEW003 BKN005 OVC008 13/12 Q1016
RJAH 251621Z 36011KT 1500 R03/P1800N +SHRA BR FEW003 BKN005 OVC008 13/12 Q1016 RMK 2ST003 7ST005 8ST008 A3001 VIS S-SW 1200M
RJAH 251600Z 36009KT 2000 SHRA BR FEW003 BKN005 OVC008 13/12 Q1017
RJAH 251500Z 36007KT 2000 SHRA BR FEW003 BKN005 OVC010 14/13 Q1018
RJAH 251434Z 01007KT 2500 SHRA BR FEW004 BKN006 OVC012 14/13 Q1018 RMK 1ST004 7ST006 8CU012 A3008 VIS S-W 2000M
RJAH 251416Z 02007KT 4000 -SHRA BR FEW005 BKN008 OVC012 14/13 Q1018 RMK 1ST005 5ST008 8CU012 A3009 VIS S-SW 2500M
RJAH 251400Z 02007KT 5000 -SHRA BR SCT008 BKN015 OVC070 14/12 Q1018
RJAH 251345Z 02007KT 7000 -SHRA FEW008 BKN020 OVC070 14/12 Q1018 RMK 1ST008 7CU020 8AC070 A3009 VIS S-SW 5KM
RJAH 251300Z 02006KT 8000 -SHRA FEW015 BKN030 OVC070 14/12 Q1020
RJAH 251202Z 02008KT 9999 -SHRA FEW015 BKN030 BKN100 14/11 Q1020 RMK 1CU015 5CU030 7AC100 A3014
RJAH 251200Z 03006KT 9999 FEW020 SCT030 BKN120 14/11 Q1020
RJAH 251100Z 36006KT 9999 FEW020 SCT040 BKN140 14/11 Q1022
RJAH 251000Z 36005KT 9999 FEW020 SCT040 BKN160 14/11 Q1022
RJAH 250900Z 02005KT 9999 FEW020 SCT120 BKN180 14/12 Q1021
RJAH 250800Z 02005KT 9999 FEW020 BKN120 BKN180 14/11 Q1022
RJAH 250700Z 02004KT 9999 FEW020 BKN120 BKN210 16/11 Q1023
RJAH 250600Z 02003KT 9999 FEW020 BKN130 BKN210 17/10 Q1023
RJAH 250500Z 04008KT 9999 FEW020 BKN150 BKN230 17/10 Q1023
RJAH 250400Z 06008KT 9999 FEW020 BKN160 BKN230 18/09 Q1023
RJAH 250300Z 06008KT 9999 FEW020 BKN160 BKN230 18/09 Q1024
RJAH 250236Z 05009KT 9999 FEW020 BKN160 BKN230 19/09 Q1024 RMK 1CU020 5AC160 A3026
RJAH 250200Z 03006KT 350V070 9999 FEW020 SCT160 BKN230 20/07 Q1025
RJAH 250100Z 03007KT 9999 FEW020 BKN230 18/06 Q1025
RJAH 250016Z 02006KT 9999 FEW020 SCT160 BKN230 17/07 Q1026 RMK 1CU020 3AC160 A3031
RJAH 250000Z 03006KT 9999 FEW020 BKN160 BKN230 15/08 Q1026
RJAH 242300Z 02005KT 9999 FEW020 BKN160 BKN230 12/07 Q1026
RJAH 242200Z 02003KT 9999 FEW020 BKN160 BKN230 09/07 Q1026
RJAH 242100Z 02004KT 9999 FEW020 BKN180 BKN230 05/04 Q1026
RJAH 242000Z 36002KT 9999 FEW020 SCT180 BKN/// 05/05 Q1026
RJAH 241900Z 02004KT 9999 FEW020 SCT/// 05/04 Q1026
RJAH 241800Z 35001KT 9999 FEW020 SCT/// 06/05 Q1026
RJAH 241700Z 02002KT 9999 FEW020 SCT/// 06/05 Q1027
RJAH 241600Z 01002KT 9999 FEW020 SCT/// 06/05 Q1027
RJAH 241500Z 32001KT 9999 FEW030 SCT/// 07/06 Q1027
RJAH 241400Z 03003KT 9999 FEW030 SCT/// 08/06 Q1027
RJAH 241300Z VRB01KT 9999 FEW030 SCT/// 08/06 Q1027
RJAH 241200Z 32002KT 9999 FEW030 SCT/// 08/06 Q1026
RJAH 241100Z 29002KT 9999 FEW030 SCT/// 09/06 Q1026
RJAH 241000Z 13001KT 9999 FEW030 SCT/// 11/05 Q1026